createdAt,value
2023-03-05T00:00:07.504Z,-1.94
2023-03-05T00:05:30.958Z,-2.00
2023-03-05T00:10:34.468Z,-2.02
2023-03-05T00:15:42.500Z,-2.03
2023-03-05T00:20:46.515Z,-2.09
2023-03-05T00:25:50.030Z,-2.10
2023-03-05T00:30:53.687Z,-2.11
2023-03-05T00:35:57.658Z,-2.13
2023-03-05T00:41:01.499Z,-2.14
2023-03-05T00:46:05.521Z,-2.15
2023-03-05T00:51:09.666Z,-2.18
2023-03-05T00:56:13.381Z,-2.21
2023-03-05T01:01:16.833Z,-2.26
2023-03-05T01:06:20.914Z,-2.28
2023-03-05T01:11:25.032Z,-2.31
2023-03-05T01:16:28.657Z,-2.34
2023-03-05T01:21:32.168Z,-2.36
2023-03-05T01:26:36.248Z,-2.40
2023-03-05T01:31:39.738Z,-2.45
2023-03-05T01:36:43.416Z,-2.49
2023-03-05T01:41:47.551Z,-2.52
2023-03-05T01:46:51.276Z,-2.55
2023-03-05T01:52:18.217Z,-2.55
2023-03-05T01:57:23.591Z,-2.56
2023-03-05T02:02:27.216Z,-2.58
2023-03-05T02:07:32.266Z,-2.60
2023-03-05T02:12:35.672Z,-2.60
2023-03-05T02:17:39.303Z,-2.56
2023-03-05T02:22:42.921Z,-2.55
2023-03-05T02:28:04.040Z,-2.57
2023-03-05T02:33:07.758Z,-2.57
2023-03-05T02:38:12.403Z,-2.57
2023-03-05T02:43:15.836Z,-2.57
2023-03-05T02:48:19.436Z,-2.59
2023-03-05T02:53:24.088Z,-2.63
2023-03-05T02:58:27.898Z,-2.65
2023-03-05T03:03:31.689Z,-2.66
2023-03-05T03:08:35.339Z,-2.68
2023-03-05T03:13:39.176Z,-2.59
2023-03-05T03:18:44.238Z,-2.49
2023-03-05T03:23:47.841Z,-2.39
2023-03-05T03:28:51.557Z,-2.23
2023-03-05T03:33:55.378Z,-2.09
2023-03-05T03:38:58.689Z,-1.95
2023-03-05T03:44:03.799Z,-1.82
2023-03-05T03:49:10.943Z,-1.72
2023-03-05T03:54:16.025Z,-1.58
2023-03-05T03:59:19.876Z,-1.56
2023-03-05T04:04:23.382Z,-1.60
2023-03-05T04:09:27.052Z,-1.66
2023-03-05T04:14:30.774Z,-1.73
2023-03-05T04:19:34.190Z,-1.80
2023-03-05T04:24:38.522Z,-1.88
2023-03-05T04:29:41.829Z,-1.98
2023-03-05T04:34:45.343Z,-2.09
2023-03-05T04:39:49.073Z,-2.17
2023-03-05T04:44:52.882Z,-2.22
2023-03-05T04:49:56.302Z,-2.32
2023-03-05T04:55:00.032Z,-2.41
2023-03-05T05:00:12.131Z,-2.49
2023-03-05T05:05:24.767Z,-2.62
2023-03-05T05:10:28.403Z,-2.73
2023-03-05T05:15:32.616Z,-2.80
2023-03-05T05:20:36.131Z,-2.87
2023-03-05T05:25:39.850Z,-2.93
2023-03-05T05:30:43.365Z,-2.95
2023-03-05T05:35:47.249Z,-2.94
2023-03-05T05:40:50.709Z,-2.88
2023-03-05T05:45:54.396Z,-2.77
2023-03-05T05:50:58.157Z,-2.55
2023-03-05T05:56:04.020Z,-2.34
2023-03-05T06:01:25.761Z,-2.14
2023-03-05T06:06:29.786Z,-2.02
2023-03-05T06:11:34.331Z,-1.98
2023-03-05T06:16:38.167Z,-1.95
2023-03-05T06:21:43.758Z,-1.90
2023-03-05T06:26:48.867Z,-1.86
2023-03-05T06:31:52.383Z,-1.80
2023-03-05T06:36:56.010Z,-1.71
2023-03-05T06:41:59.623Z,-1.59
2023-03-05T06:47:07.190Z,-1.47
2023-03-05T06:52:10.976Z,-1.34
2023-03-05T06:57:14.621Z,-1.21
2023-03-05T07:02:19.462Z,-1.08
2023-03-05T07:07:22.941Z,-0.99
2023-03-05T07:12:26.651Z,-0.87
2023-03-05T07:17:30.283Z,-0.75
2023-03-05T07:22:33.796Z,-0.58
2023-03-05T07:27:39.048Z,-0.37
2023-03-05T07:32:42.961Z,-0.17
2023-03-05T07:37:46.584Z,-0.02
2023-03-05T07:42:50.126Z,0.12
2023-03-05T07:47:53.617Z,0.28
2023-03-05T07:52:57.134Z,0.47
2023-03-05T07:58:00.756Z,0.64
2023-03-05T08:03:04.380Z,0.84
2023-03-05T08:08:08.909Z,1.04
2023-03-05T08:13:12.168Z,1.15
2023-03-05T08:18:19.213Z,1.16
2023-03-05T08:23:22.814Z,1.15
2023-03-05T08:28:26.659Z,1.16
2023-03-05T08:33:31.622Z,1.20
2023-03-05T08:38:36.043Z,1.35
2023-03-05T08:43:39.977Z,1.47
2023-03-05T08:48:44.005Z,1.69
2023-03-05T08:53:48.243Z,1.84
2023-03-05T08:58:52.764Z,1.98
2023-03-05T09:03:56.487Z,2.12
2023-03-05T09:09:00.143Z,2.22
2023-03-05T09:14:05.052Z,2.25
2023-03-05T09:19:10.821Z,2.31
2023-03-05T09:24:14.446Z,2.38
2023-03-05T09:29:17.954Z,2.60
2023-03-05T09:34:22.290Z,2.85
2023-03-05T09:39:25.701Z,3.07
2023-03-05T09:44:41.962Z,3.26
2023-03-05T09:49:45.544Z,3.27
2023-03-05T09:54:54.622Z,3.42
2023-03-05T10:00:09.182Z,3.47
2023-03-05T10:05:21.778Z,3.50
2023-03-05T10:10:41.991Z,3.45
2023-03-05T10:16:05.280Z,3.41
2023-03-05T10:21:18.717Z,3.39
2023-03-05T10:26:34.116Z,3.54
2023-03-05T10:31:46.670Z,3.89
2023-03-05T10:36:58.159Z,4.27
2023-03-05T10:42:20.496Z,4.45
2023-03-05T10:47:38.972Z,4.40
2023-03-05T10:52:48.867Z,4.23
2023-03-05T10:57:52.341Z,4.06
2023-03-05T11:03:04.867Z,3.61
2023-03-05T11:08:35.743Z,3.48
2023-03-05T11:14:00.812Z,3.90
2023-03-05T11:19:22.992Z,4.43
2023-03-05T11:24:26.507Z,4.80
2023-03-05T11:29:35.144Z,5.13
2023-03-05T11:35:01.626Z,5.40
2023-03-05T11:40:18.539Z,5.56
2023-03-05T11:45:24.121Z,5.35
2023-03-05T11:50:27.609Z,5.31
2023-03-05T11:55:41.695Z,5.61
2023-03-05T12:00:47.338Z,4.96
2023-03-05T12:05:58.607Z,3.94
2023-03-05T12:11:09.836Z,2.88
2023-03-05T12:16:25.901Z,2.59
2023-03-05T12:21:39.708Z,2.51
2023-03-05T12:27:14.997Z,2.45
2023-03-05T12:32:34.244Z,2.58
2023-03-05T12:37:44.047Z,3.00
2023-03-05T12:42:59.198Z,3.81
2023-03-05T12:48:02.612Z,4.58
2023-03-05T12:53:18.427Z,4.82
2023-03-05T12:58:54.087Z,4.99
2023-03-05T13:04:04.518Z,5.05
2023-03-05T13:09:30.034Z,4.91
2023-03-05T13:14:35.756Z,4.73
2023-03-05T13:19:42.237Z,4.71
2023-03-05T13:24:47.230Z,4.36
2023-03-05T13:29:52.990Z,4.04
2023-03-05T13:34:59.480Z,4.09
2023-03-05T13:40:19.052Z,4.38
2023-03-05T13:45:30.077Z,4.73
2023-03-05T13:50:38.972Z,5.02
2023-03-05T13:55:42.479Z,5.00
2023-03-05T14:00:46.182Z,4.74
2023-03-05T14:05:50.330Z,4.51
2023-03-05T14:10:57.341Z,4.24
2023-03-05T14:16:26.267Z,4.12
2023-03-05T14:21:48.336Z,4.25
2023-03-05T14:26:54.058Z,4.36
2023-03-05T14:32:03.278Z,4.44
2023-03-05T14:37:21.770Z,4.52
2023-03-05T14:42:39.452Z,4.56
2023-03-05T14:47:43.243Z,4.52
2023-03-05T14:52:49.034Z,4.24
2023-03-05T14:58:07.484Z,4.01
2023-03-05T15:03:12.738Z,3.69
2023-03-05T15:08:34.940Z,3.49
2023-03-05T15:13:38.400Z,6.52
2023-03-05T15:18:41.918Z,9.24
2023-03-05T15:23:45.633Z,11.76
2023-03-05T15:28:49.149Z,14.85
2023-03-05T15:33:52.971Z,16.91
2023-03-05T15:38:56.405Z,18.40
2023-03-05T15:44:00.007Z,19.66
2023-03-05T15:49:03.517Z,21.07
2023-03-05T15:54:07.137Z,18.70
2023-03-05T15:59:13.658Z,14.79
2023-03-05T16:04:17.764Z,11.38
2023-03-05T16:09:21.992Z,9.18
2023-03-05T16:14:28.029Z,9.14
2023-03-05T16:19:34.549Z,8.20
2023-03-05T16:24:38.064Z,6.24
2023-03-05T16:29:41.584Z,4.81
2023-03-05T16:34:45.201Z,3.72
2023-03-05T16:39:49.338Z,2.91
2023-03-05T16:44:52.964Z,2.29
2023-03-05T16:49:56.578Z,1.85
2023-03-05T16:55:00.952Z,1.49
2023-03-05T17:00:05.935Z,1.17
2023-03-05T17:05:09.615Z,0.87
2023-03-05T17:10:14.110Z,0.62
2023-03-05T17:15:17.844Z,0.39
2023-03-05T17:20:21.859Z,0.22
2023-03-05T17:25:25.377Z,0.05
2023-03-05T17:30:31.582Z,-0.09
2023-03-05T17:35:35.708Z,-0.18
2023-03-05T17:40:39.915Z,-0.30
2023-03-05T17:45:43.510Z,-0.39
2023-03-05T17:50:47.563Z,-0.47
2023-03-05T17:55:51.280Z,-0.52
2023-03-05T18:00:55.191Z,-0.57
2023-03-05T18:05:58.754Z,-0.61
2023-03-05T18:11:02.346Z,-0.66
2023-03-05T18:16:06.364Z,-0.72
2023-03-05T18:21:10.305Z,-0.79
2023-03-05T18:26:14.437Z,-0.88
2023-03-05T18:31:19.270Z,-0.97
2023-03-05T18:36:23.462Z,-1.00
2023-03-05T18:41:28.323Z,-1.01
2023-03-05T18:46:32.475Z,-1.01
2023-03-05T18:51:37.705Z,-1.02
2023-03-05T18:56:41.359Z,-1.05
2023-03-05T19:01:44.907Z,-1.07
2023-03-05T19:06:48.948Z,-1.11
2023-03-05T19:11:53.135Z,-1.14
2023-03-05T19:16:57.094Z,-1.17
2023-03-05T19:22:01.429Z,-1.19
2023-03-05T19:27:10.736Z,-1.22
2023-03-05T19:32:17.861Z,-1.25
2023-03-05T19:37:22.491Z,-1.29
2023-03-05T19:42:29.374Z,-1.32
2023-03-05T19:47:33.518Z,-1.36
2023-03-05T19:52:37.853Z,-1.40
2023-03-05T19:57:42.075Z,-1.44
2023-03-05T20:02:46.661Z,-1.48
2023-03-05T20:07:50.742Z,-1.51
2023-03-05T20:12:55.293Z,-1.56
2023-03-05T20:17:59.966Z,-1.60
2023-03-05T20:23:04.130Z,-1.62
2023-03-05T20:28:08.600Z,-1.62
2023-03-05T20:33:13.036Z,-1.65
2023-03-05T20:38:21.805Z,-1.65
2023-03-05T20:43:30.393Z,-1.69
2023-03-05T20:48:34.771Z,-1.74
2023-03-05T20:53:38.247Z,-1.78
2023-03-05T20:58:42.411Z,-1.83
2023-03-05T21:03:45.893Z,-1.89
2023-03-05T21:08:49.413Z,-1.93
2023-03-05T21:13:53.032Z,-2.00
2023-03-05T21:18:57.569Z,-2.06
2023-03-05T21:24:00.983Z,-2.11
2023-03-05T21:29:05.620Z,-2.14
2023-03-05T21:34:09.144Z,-2.19
2023-03-05T21:39:12.656Z,-2.23
2023-03-05T21:44:18.011Z,-2.24
2023-03-05T21:49:21.530Z,-2.25
2023-03-05T21:54:26.368Z,-2.25
2023-03-05T21:59:30.906Z,-2.25
2023-03-05T22:04:34.525Z,-2.27
2023-03-05T22:09:38.248Z,-2.26
2023-03-05T22:14:42.068Z,-2.22
2023-03-05T22:19:45.581Z,-2.14
2023-03-05T22:24:49.098Z,-2.05
2023-03-05T22:29:52.720Z,-1.98
2023-03-05T22:34:56.944Z,-1.93
2023-03-05T22:40:01.175Z,-1.87
2023-03-05T22:45:05.046Z,-1.83
2023-03-05T22:50:09.433Z,-1.83
2023-03-05T22:55:14.076Z,-1.85
2023-03-05T23:00:21.758Z,-1.86
2023-03-05T23:05:25.314Z,-1.91
2023-03-05T23:10:29.652Z,-1.92
2023-03-05T23:15:36.072Z,-1.92
2023-03-05T23:20:39.662Z,-1.91
2023-03-05T23:25:43.271Z,-1.91
2023-03-05T23:30:47.040Z,-1.89
2023-03-05T23:35:59.406Z,-1.98
2023-03-05T23:41:07.335Z,-2.07
2023-03-05T23:46:12.460Z,-2.13
2023-03-05T23:51:16.100Z,-2.22
2023-03-05T23:56:19.719Z,-2.28
